Main page
METAR-TAF:

METAR-TAF

Airports :

Windham Airport

Willimantic, Connecticut, United States

latitude: 41-44-31N, longitude: 072-11-01W, elevation: 246 ft

Current weather observation

The report was made 28 minutes ago, at 01:52 UTC
Wind 3 mph from the Northeast
Temperature 25°F
Humidity 74%
Pressure 30.40 in. Hg
Visibility: 10 miles
Scattered clouds at a height of 6000 ft

METAR: KIJD 090152Z AUTO 04003KT 10SM SCT060 M04/M08 A3040 RMK AO2 SLP298 T10441083

Time: 21:20 (02:20 UTC)


TAF: missing

Weather observations and forecasts of more than 4000 airports (METAR and TAF reports).

The available stations are represented by yellow and red dots on the map.

Hover mouse over dot to see the name of the station.

Then click to see weather observations and forecasts.

To change the map : click on the green buttons with a black cross to zoom in, on the green button with a dash to zoom out, or on the green arrows for adjacent maps.


METAR-TAF: